KCGF/CGF METAR and TAF weather

Enter ICAO airport designator
Station Type Date Time Source
KCGF METAR 2021/07/29 01:45 UTC NOAA

KCGF 290145Z 15003KT 20SM BKN200 21/17 A3001


Station Type Date Time Source
KCGF Decoded METAR 2021/07/29 01:45 UTC NOAA

Cleveland / Cuyahoga, OH, United States (KCGF) 41-34N 081-29W
Jul 28, 2021 - 09:45 PM EDT / 2021.07.29 0145 UTC
Wind: from the SSE (150 degrees) at 3 MPH (3 KT):0
Visibility: 20 mile(s):0
Sky conditions: mostly cloudy
Temperature: 69 F (21 C)
Dew Point: 62 F (17 C)
Relative Humidity: 77%
Pressure (altimeter): 30.01 in. Hg (1016 hPa)
ob: KCGF 290145Z 15003KT 20SM BKN200 21/17 A3001
cycle: 2

Station Type Date Time Source
KCGF TAF 2016/07/19 12:36 UTC NOAA

TAF KCGF 191136Z 1912/2012 VRB05KT P6SM SCT080
FM191400 33008KT P6SM SCT040
FM191900 35008KT P6SM SCT060
FM200000 04003KT P6SM SCT080
FM200700 14003KT P6SM SKC

Example: see airport list